createdAt,value
2019-01-29T00:00:05.251Z,16.45
2019-01-29T00:02:39.155Z,9.75
2019-01-29T00:05:13.273Z,15.11
2019-01-29T00:07:47.427Z,9.60
2019-01-29T00:10:21.377Z,15.79
2019-01-29T00:12:55.715Z,9.15
2019-01-29T00:15:29.513Z,14.81
2019-01-29T00:18:04.014Z,8.68
2019-01-29T00:20:37.713Z,13.96
2019-01-29T00:23:12.510Z,8.57
2019-01-29T00:25:46.117Z,13.48
2019-01-29T00:28:20.748Z,8.54
2019-01-29T00:30:55.729Z,13.17
2019-01-29T00:33:20.899Z,8.37
2019-01-29T00:36:02.353Z,13.06
2019-01-29T00:38:29.097Z,8.45
2019-01-29T00:41:10.506Z,12.42
2019-01-29T00:43:37.324Z,8.50
2019-01-29T00:46:18.813Z,11.65
2019-01-29T00:48:46.190Z,8.38
2019-01-29T00:51:27.022Z,11.12
2019-01-29T00:53:54.416Z,8.77
2019-01-29T00:56:35.195Z,11.08
2019-01-29T00:59:02.614Z,8.24
2019-01-29T01:01:43.307Z,11.63
2019-01-29T01:04:10.894Z,8.64
2019-01-29T01:06:51.417Z,12.80
2019-01-29T01:09:19.197Z,8.38
2019-01-29T01:11:59.534Z,12.47
2019-01-29T01:14:27.325Z,7.88
2019-01-29T01:17:07.681Z,11.88
2019-01-29T01:19:35.513Z,7.73
2019-01-29T01:22:15.677Z,11.15
2019-01-29T01:24:43.908Z,8.21
2019-01-29T01:27:23.734Z,10.60
2019-01-29T01:29:52.107Z,7.91
2019-01-29T01:32:31.842Z,10.64
2019-01-29T01:35:00.255Z,8.00
2019-01-29T01:37:40.394Z,10.00
2019-01-29T01:40:08.457Z,7.93
2019-01-29T01:42:48.511Z,10.61
2019-01-29T01:45:16.596Z,7.82
2019-01-29T01:47:56.590Z,9.77
2019-01-29T01:50:24.744Z,8.33
2019-01-29T01:53:05.075Z,9.31
2019-01-29T01:55:31.669Z,7.61
2019-01-29T01:58:13.492Z,9.39
2019-01-29T02:00:39.913Z,7.85
2019-01-29T02:03:21.617Z,9.76
2019-01-29T02:05:48.142Z,7.97
2019-01-29T02:08:30.177Z,9.30
2019-01-29T02:10:56.385Z,7.89
2019-01-29T02:13:38.328Z,9.23
2019-01-29T02:16:04.629Z,7.49
2019-01-29T02:18:46.597Z,9.98
2019-01-29T02:21:12.745Z,7.66
2019-01-29T02:23:55.249Z,8.52
2019-01-29T02:26:21.061Z,6.93
2019-01-29T02:29:03.331Z,8.97
2019-01-29T02:31:29.181Z,7.03
2019-01-29T02:34:11.508Z,7.94
2019-01-29T02:36:37.525Z,6.76
2019-01-29T02:39:19.606Z,7.68
2019-01-29T02:41:45.683Z,6.94
2019-01-29T02:44:27.941Z,9.64
2019-01-29T02:46:54.169Z,7.13
2019-01-29T02:49:36.136Z,7.14
2019-01-29T02:52:02.405Z,6.49
2019-01-29T02:54:44.314Z,7.22
2019-01-29T02:57:10.705Z,6.25
2019-01-29T02:59:52.420Z,7.22
2019-01-29T03:02:18.966Z,5.86
2019-01-29T03:05:00.778Z,7.57
2019-01-29T03:07:27.249Z,5.44
2019-01-29T03:10:09.136Z,6.79
2019-01-29T03:12:35.521Z,5.69
2019-01-29T03:15:18.109Z,6.83
2019-01-29T03:17:43.769Z,6.05
2019-01-29T03:20:26.212Z,7.65
2019-01-29T03:22:51.831Z,5.71
2019-01-29T03:25:34.399Z,7.69
2019-01-29T03:28:00.092Z,6.60
2019-01-29T03:30:42.566Z,7.84
2019-01-29T03:33:08.301Z,5.97
2019-01-29T03:35:49.713Z,6.61
2019-01-29T03:38:16.598Z,6.18
2019-01-29T03:40:59.562Z,7.62
2019-01-29T03:43:25.152Z,6.24
2019-01-29T03:46:07.725Z,7.21
2019-01-29T03:48:33.405Z,6.24
2019-01-29T03:51:16.463Z,7.78
2019-01-29T03:53:41.618Z,5.81
2019-01-29T03:56:24.702Z,6.71
2019-01-29T03:58:49.779Z,6.05
2019-01-29T04:01:32.769Z,7.24
2019-01-29T04:03:57.965Z,5.94
2019-01-29T04:06:41.454Z,7.22
2019-01-29T04:09:06.188Z,5.86
2019-01-29T04:11:50.061Z,6.92
2019-01-29T04:14:14.325Z,5.72
2019-01-29T04:16:58.249Z,6.82
2019-01-29T04:19:22.567Z,5.62
2019-01-29T04:22:06.339Z,7.37
2019-01-29T04:24:30.802Z,5.94
2019-01-29T04:27:14.389Z,7.32
2019-01-29T04:29:39.115Z,6.03
2019-01-29T04:32:22.558Z,6.43
2019-01-29T04:34:47.198Z,6.41
2019-01-29T04:37:30.789Z,6.90
2019-01-29T04:39:55.448Z,6.06
2019-01-29T04:42:39.115Z,6.35
2019-01-29T04:45:03.781Z,5.72
2019-01-29T04:47:47.309Z,5.96
2019-01-29T04:50:12.206Z,5.15
2019-01-29T04:52:55.450Z,5.53
2019-01-29T04:55:20.374Z,4.80
2019-01-29T04:58:03.500Z,6.25
2019-01-29T05:00:28.598Z,4.86
2019-01-29T05:03:11.601Z,5.41
2019-01-29T05:05:36.780Z,5.04
2019-01-29T05:08:20.128Z,6.88
2019-01-29T05:10:44.986Z,5.53
2019-01-29T05:13:28.287Z,6.01
2019-01-29T05:15:53.181Z,5.05
2019-01-29T05:18:36.301Z,5.41
2019-01-29T05:21:01.579Z,5.03
2019-01-29T05:23:44.501Z,5.21
2019-01-29T05:26:10.069Z,4.65
2019-01-29T05:28:52.605Z,5.68
2019-01-29T05:31:18.497Z,4.69
2019-01-29T05:34:00.940Z,5.09
2019-01-29T05:36:26.649Z,5.03
2019-01-29T05:39:09.162Z,5.06
2019-01-29T05:41:34.793Z,4.60
2019-01-29T05:44:17.235Z,5.72
2019-01-29T05:46:43.505Z,5.00
2019-01-29T05:49:25.563Z,6.01
2019-01-29T05:51:51.649Z,5.14
2019-01-29T05:54:33.732Z,5.52
2019-01-29T05:56:59.772Z,4.82
2019-01-29T05:59:42.350Z,6.50
2019-01-29T06:02:08.280Z,4.95
2019-01-29T06:04:50.580Z,5.51
2019-01-29T06:07:16.805Z,5.26
2019-01-29T06:09:58.709Z,5.88
2019-01-29T06:12:23.477Z,5.28
2019-01-29T06:15:09.950Z,6.22
2019-01-29T06:17:30.094Z,4.96
2019-01-29T06:20:10.020Z,6.51
2019-01-29T06:22:42.755Z,5.95
2019-01-29T06:25:10.008Z,6.49
2019-01-29T06:27:41.173Z,6.65
2019-01-29T06:30:16.452Z,7.21
2019-01-29T06:32:48.855Z,6.30
2019-01-29T06:35:24.493Z,7.22
2019-01-29T06:37:55.580Z,6.66
2019-01-29T06:40:31.370Z,6.97
2019-01-29T06:43:03.797Z,6.51
2019-01-29T06:45:40.660Z,7.03
2019-01-29T06:48:12.071Z,6.85
2019-01-29T06:50:50.874Z,7.19
2019-01-29T06:53:20.401Z,6.91
2019-01-29T06:55:49.180Z,7.39
2019-01-29T06:58:28.686Z,6.62
2019-01-29T07:00:57.389Z,7.03
2019-01-29T07:03:36.960Z,6.46
2019-01-29T07:06:05.845Z,7.16
2019-01-29T07:08:43.633Z,6.80
2019-01-29T07:11:15.436Z,7.01
2019-01-29T07:13:52.361Z,6.22
2019-01-29T07:16:23.852Z,7.55
2019-01-29T07:19:05.574Z,6.91
2019-01-29T07:21:32.028Z,8.31
2019-01-29T07:24:05.050Z,6.57
2019-01-29T07:26:40.001Z,9.22
2019-01-29T07:29:11.658Z,6.57
2019-01-29T07:31:48.115Z,9.51
2019-01-29T07:34:19.917Z,6.91
2019-01-29T07:36:56.445Z,9.46
2019-01-29T07:39:28.226Z,7.36
2019-01-29T07:42:04.457Z,8.76
2019-01-29T07:44:36.741Z,6.69
2019-01-29T07:47:12.567Z,8.83
2019-01-29T07:49:45.725Z,6.53
2019-01-29T07:52:20.781Z,8.15
2019-01-29T07:54:53.986Z,6.33
2019-01-29T07:57:28.897Z,8.31
2019-01-29T08:00:02.230Z,6.58
2019-01-29T08:02:37.026Z,8.27
2019-01-29T08:05:10.452Z,6.62
2019-01-29T08:07:45.160Z,7.95
2019-01-29T08:10:18.564Z,6.62
2019-01-29T08:12:53.845Z,8.51
2019-01-29T08:15:27.617Z,6.74
2019-01-29T08:18:02.223Z,7.94
2019-01-29T08:20:35.762Z,6.47
2019-01-29T08:23:10.399Z,7.54
2019-01-29T08:25:47.893Z,6.37
2019-01-29T08:28:18.628Z,7.61
2019-01-29T08:30:51.695Z,6.70
2019-01-29T08:33:26.964Z,7.80
2019-01-29T08:36:00.393Z,7.22
2019-01-29T08:38:35.282Z,7.21
2019-01-29T08:41:08.729Z,6.79
2019-01-29T08:43:43.504Z,7.47
2019-01-29T08:46:16.989Z,6.51
2019-01-29T08:48:51.875Z,7.36
2019-01-29T08:51:25.202Z,7.26
2019-01-29T08:53:59.977Z,7.86
2019-01-29T08:56:33.544Z,7.42
2019-01-29T08:59:08.207Z,9.01
2019-01-29T09:01:41.773Z,7.84
2019-01-29T09:04:16.445Z,9.00
2019-01-29T09:06:50.626Z,7.93
2019-01-29T09:09:24.609Z,9.75
2019-01-29T09:11:58.977Z,7.91
2019-01-29T09:14:28.479Z,9.25
2019-01-29T09:17:07.244Z,7.74
2019-01-29T09:19:36.703Z,9.03
2019-01-29T09:22:15.646Z,7.31
2019-01-29T09:24:44.726Z,9.15
2019-01-29T09:27:24.386Z,7.69
2019-01-29T09:29:53.039Z,9.00
2019-01-29T09:32:32.769Z,7.43
2019-01-29T09:35:01.205Z,10.25
2019-01-29T09:37:41.035Z,7.57
2019-01-29T09:40:09.209Z,8.83
2019-01-29T09:42:49.441Z,7.30
2019-01-29T09:45:17.616Z,8.06
2019-01-29T09:47:57.993Z,6.79
2019-01-29T09:50:25.738Z,7.25
2019-01-29T09:53:06.625Z,6.80
2019-01-29T09:55:33.793Z,7.58
2019-01-29T09:58:15.094Z,6.86
2019-01-29T10:00:42.060Z,7.85
2019-01-29T10:03:23.233Z,6.50
2019-01-29T10:05:50.190Z,7.43
2019-01-29T10:08:31.416Z,7.02
2019-01-29T10:10:58.324Z,7.99
2019-01-29T10:13:39.959Z,6.50
2019-01-29T10:16:06.445Z,7.60
2019-01-29T10:18:48.253Z,6.52
2019-01-29T10:21:14.560Z,6.60
2019-01-29T10:23:56.645Z,6.05
2019-01-29T10:26:22.689Z,6.23
2019-01-29T10:29:05.097Z,5.75
2019-01-29T10:31:30.762Z,6.68
2019-01-29T10:34:13.607Z,5.90
2019-01-29T10:36:39.266Z,6.70
2019-01-29T10:39:21.896Z,6.62
2019-01-29T10:41:47.305Z,6.87
2019-01-29T10:44:30.370Z,6.39
2019-01-29T10:46:55.941Z,5.70
2019-01-29T10:49:38.844Z,5.78
2019-01-29T10:52:04.108Z,5.72
2019-01-29T10:54:47.252Z,5.33
2019-01-29T10:57:12.651Z,5.65
2019-01-29T10:59:55.635Z,5.21
2019-01-29T11:02:20.617Z,5.81
2019-01-29T11:05:04.160Z,5.62
2019-01-29T11:07:28.904Z,5.76
2019-01-29T11:10:12.521Z,5.63
2019-01-29T11:12:37.108Z,6.71
2019-01-29T11:15:21.080Z,5.29
2019-01-29T11:17:45.313Z,6.41
2019-01-29T11:20:29.249Z,6.38
2019-01-29T11:22:53.455Z,7.03
2019-01-29T11:25:37.594Z,6.32
2019-01-29T11:28:01.479Z,7.46
2019-01-29T11:30:45.937Z,7.10
2019-01-29T11:33:09.481Z,7.88
2019-01-29T11:35:54.361Z,7.55
2019-01-29T11:38:17.585Z,7.96
2019-01-29T11:41:02.733Z,7.56
2019-01-29T11:43:25.777Z,8.54
2019-01-29T11:46:11.093Z,6.89
2019-01-29T11:48:33.917Z,7.85
2019-01-29T11:51:19.677Z,6.81
2019-01-29T11:53:42.105Z,7.45
2019-01-29T11:56:28.032Z,7.09
2019-01-29T11:58:50.225Z,7.04
2019-01-29T12:01:36.772Z,7.15
2019-01-29T12:03:58.345Z,7.51
2019-01-29T12:06:45.009Z,6.35
2019-01-29T12:09:06.593Z,7.10
2019-01-29T12:11:53.268Z,6.42
2019-01-29T12:14:14.744Z,7.62
2019-01-29T12:17:01.588Z,6.24
2019-01-29T12:19:22.805Z,7.65
2019-01-29T12:22:08.313Z,6.79
2019-01-29T12:24:30.973Z,8.74
2019-01-29T12:27:16.978Z,7.65
2019-01-29T12:29:39.314Z,9.76
2019-01-29T12:32:25.274Z,9.35
2019-01-29T12:34:47.513Z,11.60
2019-01-29T12:37:33.436Z,10.22
2019-01-29T12:39:55.608Z,13.88
2019-01-29T12:42:41.667Z,11.59
2019-01-29T12:45:03.723Z,15.20
2019-01-29T12:47:49.947Z,13.63
2019-01-29T12:50:11.950Z,14.33
2019-01-29T12:52:58.305Z,13.44
2019-01-29T12:55:20.270Z,14.16
2019-01-29T12:58:06.441Z,12.65
2019-01-29T13:00:28.738Z,13.48
2019-01-29T13:03:15.057Z,12.70
2019-01-29T13:05:37.148Z,14.58
2019-01-29T13:08:23.424Z,12.34
2019-01-29T13:10:45.329Z,14.59
2019-01-29T13:13:31.772Z,13.04
2019-01-29T13:15:54.355Z,15.06
2019-01-29T13:18:40.121Z,13.56
2019-01-29T13:21:02.923Z,14.68
2019-01-29T13:23:48.485Z,13.57
2019-01-29T13:26:10.997Z,15.48
2019-01-29T13:28:57.040Z,12.31
2019-01-29T13:31:19.213Z,13.34
2019-01-29T13:34:05.308Z,12.64
2019-01-29T13:36:27.540Z,14.22
2019-01-29T13:39:14.034Z,12.95
2019-01-29T13:41:35.673Z,13.55
2019-01-29T13:44:22.392Z,12.51
2019-01-29T13:46:43.848Z,13.74
2019-01-29T13:49:31.097Z,13.00
2019-01-29T13:51:52.024Z,14.18
2019-01-29T13:54:39.613Z,11.98
2019-01-29T13:57:00.292Z,13.07
2019-01-29T13:59:47.797Z,12.91
2019-01-29T14:02:08.492Z,12.81
2019-01-29T14:04:56.538Z,11.43
2019-01-29T14:07:16.793Z,13.46
2019-01-29T14:10:04.900Z,11.78
2019-01-29T14:12:24.946Z,12.73
2019-01-29T14:15:14.445Z,12.27
2019-01-29T14:17:47.151Z,13.88
2019-01-29T14:20:21.959Z,12.41
2019-01-29T14:22:40.568Z,13.63
2019-01-29T14:25:30.841Z,12.16
2019-01-29T14:27:42.594Z,14.06
2019-01-29T14:30:39.039Z,12.02
2019-01-29T14:32:50.626Z,13.80
2019-01-29T14:35:49.055Z,11.30
2019-01-29T14:37:59.408Z,13.27
2019-01-29T14:40:50.850Z,11.36
2019-01-29T14:43:08.238Z,12.36
2019-01-29T14:45:49.517Z,11.18
2019-01-29T14:48:16.695Z,11.56
2019-01-29T14:50:57.785Z,10.07
2019-01-29T14:53:24.929Z,11.15
2019-01-29T14:56:06.244Z,10.56
2019-01-29T14:58:32.983Z,11.15
2019-01-29T15:01:15.142Z,9.88
2019-01-29T15:03:41.226Z,9.85
2019-01-29T15:06:32.006Z,10.18
2019-01-29T15:08:49.254Z,10.96
2019-01-29T15:11:31.380Z,9.68
2019-01-29T15:13:57.414Z,11.40
2019-01-29T15:16:39.700Z,9.80
2019-01-29T15:19:05.482Z,10.99
2019-01-29T15:21:48.787Z,9.37
2019-01-29T15:24:13.568Z,10.60
2019-01-29T15:26:55.613Z,10.15
2019-01-29T15:29:21.602Z,11.21
2019-01-29T15:32:03.952Z,10.60
2019-01-29T15:34:29.789Z,11.39
2019-01-29T15:37:12.160Z,10.89
2019-01-29T15:39:37.914Z,11.89
2019-01-29T15:42:20.396Z,11.08
2019-01-29T15:44:46.039Z,13.85
2019-01-29T15:47:28.661Z,12.05
2019-01-29T15:49:54.385Z,12.56
2019-01-29T15:52:36.927Z,11.79
2019-01-29T15:55:02.624Z,12.66
2019-01-29T15:57:45.225Z,12.98
2019-01-29T16:00:10.685Z,14.15
2019-01-29T16:02:53.767Z,13.26
2019-01-29T16:05:18.873Z,15.04
2019-01-29T16:08:01.970Z,13.35
2019-01-29T16:10:26.989Z,15.05
2019-01-29T16:13:10.235Z,14.91
2019-01-29T16:15:35.182Z,15.54
2019-01-29T16:18:18.495Z,15.61
2019-01-29T16:20:43.437Z,16.30
2019-01-29T16:23:26.884Z,16.41
2019-01-29T16:25:51.684Z,17.35
2019-01-29T16:28:35.094Z,17.17
2019-01-29T16:30:59.805Z,17.07
2019-01-29T16:33:43.397Z,17.22
2019-01-29T16:36:08.013Z,17.19
2019-01-29T16:38:51.624Z,17.24
2019-01-29T16:41:16.030Z,18.60
2019-01-29T16:43:59.919Z,17.71
2019-01-29T16:46:24.146Z,18.40
2019-01-29T16:49:08.178Z,18.17
2019-01-29T16:51:41.535Z,18.55
2019-01-29T16:54:16.446Z,17.88
2019-01-29T16:56:39.743Z,18.89
2019-01-29T16:59:24.773Z,18.05
2019-01-29T17:01:47.903Z,18.53
2019-01-29T17:04:33.120Z,18.74
2019-01-29T17:06:56.030Z,18.68
2019-01-29T17:09:41.390Z,18.69
2019-01-29T17:12:04.041Z,18.63
2019-01-29T17:14:49.953Z,19.34
2019-01-29T17:17:12.306Z,19.43
2019-01-29T17:19:57.208Z,19.29
2019-01-29T17:22:21.205Z,18.90
2019-01-29T17:25:05.569Z,19.25
2019-01-29T17:27:29.310Z,18.53
2019-01-29T17:30:13.885Z,18.70
2019-01-29T17:32:37.296Z,19.32
2019-01-29T17:35:23.049Z,18.63
2019-01-29T17:37:45.746Z,19.23
2019-01-29T17:40:31.205Z,18.35
2019-01-29T17:42:54.326Z,17.51
2019-01-29T17:45:40.577Z,18.42
2019-01-29T17:48:02.661Z,18.09
2019-01-29T17:50:48.822Z,18.60
2019-01-29T17:53:10.842Z,18.30
2019-01-29T17:55:57.396Z,17.17
2019-01-29T17:58:18.882Z,17.80
2019-01-29T18:01:05.645Z,18.42
2019-01-29T18:03:26.994Z,17.96
2019-01-29T18:06:13.805Z,18.22
2019-01-29T18:08:35.121Z,17.89
2019-01-29T18:11:22.586Z,18.08
2019-01-29T18:13:43.365Z,17.77
2019-01-29T18:16:31.053Z,17.08
2019-01-29T18:18:52.408Z,17.53
2019-01-29T18:21:39.125Z,18.40
2019-01-29T18:24:01.805Z,18.25
2019-01-29T18:26:47.885Z,18.28
2019-01-29T18:29:09.854Z,18.87
2019-01-29T18:31:56.132Z,19.07
2019-01-29T18:34:18.277Z,18.06
2019-01-29T18:37:04.841Z,18.59
2019-01-29T18:39:27.959Z,17.61
2019-01-29T18:42:13.450Z,19.40
2019-01-29T18:44:28.167Z,18.82
2019-01-29T18:47:21.810Z,19.09
2019-01-29T18:49:36.508Z,17.94
2019-01-29T18:52:31.370Z,18.97
2019-01-29T18:54:44.496Z,18.74
2019-01-29T18:57:41.170Z,19.46
2019-01-29T18:59:54.101Z,19.55
2019-01-29T19:02:49.455Z,19.75
2019-01-29T19:05:02.227Z,19.48
2019-01-29T19:07:59.070Z,20.41
2019-01-29T19:10:10.364Z,21.27
2019-01-29T19:13:07.188Z,21.56
2019-01-29T19:15:18.520Z,20.68
2019-01-29T19:18:16.966Z,21.79
2019-01-29T19:20:18.584Z,20.01
2019-01-29T19:23:17.433Z,21.49
2019-01-29T19:25:27.262Z,20.20
2019-01-29T19:28:25.913Z,22.16
2019-01-29T19:30:36.438Z,21.62
2019-01-29T19:33:34.271Z,22.57
2019-01-29T19:35:35.978Z,23.15
2019-01-29T19:38:34.697Z,22.67
2019-01-29T19:40:44.411Z,23.18
2019-01-29T19:44:00.478Z,23.59
2019-01-29T19:48:07.232Z,28.03
2019-01-29T19:48:48.737Z,23.57
2019-01-29T19:53:05.490Z,22.71
2019-01-29T19:53:56.948Z,23.10
2019-01-29T19:58:13.728Z,22.94
2019-01-29T19:59:07.375Z,24.15
2019-01-29T20:03:22.110Z,22.62
2019-01-29T20:03:51.530Z,9.21
2019-01-29T20:09:45.745Z,9.35
2019-01-29T20:25:35.625Z,23.20
2019-01-29T20:26:43.788Z,24.47
2019-01-29T20:31:51.898Z,24.58
2019-01-29T20:37:00.017Z,24.97
2019-01-29T20:42:08.016Z,24.36
2019-01-29T20:47:16.457Z,25.50
2019-01-29T20:52:24.692Z,25.41
2019-01-29T20:57:32.701Z,25.99
2019-01-29T21:02:41.293Z,25.62
2019-01-29T21:07:49.442Z,26.52
2019-01-29T21:12:57.457Z,26.22
2019-01-29T21:18:05.680Z,26.84
2019-01-29T21:23:13.811Z,26.94
2019-01-29T21:28:21.934Z,27.67
2019-01-29T21:33:24.017Z,26.53
2019-01-29T21:38:32.172Z,27.05
2019-01-29T21:43:40.289Z,26.58
2019-01-29T21:48:48.292Z,26.91
2019-01-29T21:53:56.464Z,27.24
2019-01-29T21:59:13.139Z,26.71
2019-01-29T22:04:12.105Z,27.45
2019-01-29T22:09:21.339Z,26.82
2019-01-29T22:14:29.650Z,27.56
2019-01-29T22:19:37.770Z,28.63
2019-01-29T22:24:45.895Z,27.54
2019-01-29T22:29:53.974Z,27.27
2019-01-29T22:35:02.127Z,27.54
2019-01-29T22:40:10.169Z,27.13
2019-01-29T22:45:18.157Z,27.18
2019-01-29T22:50:26.630Z,25.79
2019-01-29T22:55:34.768Z,26.49
2019-01-29T23:00:43.076Z,26.41
2019-01-29T23:05:51.979Z,27.60
2019-01-29T23:11:00.044Z,27.43
2019-01-29T23:16:08.165Z,27.72
2019-01-29T23:21:14.721Z,26.99
2019-01-29T23:26:23.118Z,26.16
2019-01-29T23:31:31.213Z,26.07
2019-01-29T23:36:39.561Z,27.00
2019-01-29T23:41:47.681Z,26.52
2019-01-29T23:46:55.753Z,27.15
2019-01-29T23:52:03.932Z,27.48
2019-01-29T23:57:11.980Z,28.05
